createdAt,value
2022-08-19T00:02:05.465Z,99935.75
2022-08-19T00:04:37.708Z,99949.28
2022-08-19T00:07:07.641Z,99961.94
2022-08-19T00:09:35.985Z,99979.50
2022-08-19T00:12:04.918Z,99984.75
2022-08-19T00:14:33.257Z,99958.34
2022-08-19T00:17:02.003Z,99930.50
2022-08-19T00:19:30.897Z,99885.91
2022-08-19T00:21:59.046Z,99840.53
2022-08-19T00:24:28.228Z,99798.03
2022-08-19T00:26:57.547Z,99767.38
2022-08-19T00:29:45.673Z,99774.94
2022-08-19T00:32:13.992Z,99793.78
2022-08-19T00:34:46.341Z,99774.56
2022-08-19T00:37:14.516Z,99737.09
2022-08-19T00:39:42.732Z,99748.50
2022-08-19T00:42:11.007Z,99833.56
2022-08-19T00:44:39.157Z,99894.69
2022-08-19T00:47:07.646Z,99904.06
2022-08-19T00:49:52.259Z,99896.88
2022-08-19T00:52:24.994Z,99897.06
2022-08-19T00:54:54.347Z,99909.13
2022-08-19T00:57:35.910Z,99926.94
2022-08-19T01:00:13.138Z,99930.19
2022-08-19T01:02:42.935Z,99937.38
2022-08-19T01:05:21.793Z,99954.97
2022-08-19T01:07:53.865Z,99970.97
2022-08-19T01:10:27.758Z,99981.00
2022-08-19T01:12:59.684Z,99990.63
2022-08-19T01:15:36.381Z,99999.41
2022-08-19T01:18:09.275Z,99997.59
2022-08-19T01:20:37.751Z,99989.22
2022-08-19T01:23:06.152Z,99967.34
2022-08-19T01:25:48.298Z,99959.78
2022-08-19T01:28:39.788Z,99982.94
2022-08-19T01:31:26.777Z,100006.47
2022-08-19T01:33:57.461Z,100014.06
2022-08-19T01:36:33.035Z,100021.63
2022-08-19T01:39:03.945Z,100002.78
2022-08-19T01:41:32.521Z,99988.06
2022-08-19T01:44:17.788Z,99970.28
2022-08-19T01:46:49.555Z,99975.00
2022-08-19T01:49:20.735Z,99988.06
2022-08-19T01:51:50.531Z,100016.31
2022-08-19T01:54:23.027Z,100014.25
2022-08-19T01:57:15.828Z,99991.34
2022-08-19T01:59:45.445Z,99978.88
2022-08-19T02:02:14.792Z,99971.94
2022-08-19T02:04:43.122Z,99969.09
2022-08-19T02:07:11.270Z,99956.00
2022-08-19T02:09:42.651Z,99951.31
2022-08-19T02:12:10.918Z,99944.19
2022-08-19T02:14:39.172Z,99937.44
2022-08-19T02:17:10.423Z,99922.91
2022-08-19T02:19:40.970Z,99918.00
2022-08-19T02:22:09.342Z,99934.81
2022-08-19T02:24:37.620Z,99935.63
2022-08-19T02:27:06.816Z,99923.38
2022-08-19T02:29:35.009Z,99906.22
2022-08-19T02:32:03.268Z,99907.66
2022-08-19T02:34:31.977Z,99899.69
2022-08-19T02:37:03.656Z,99886.00
2022-08-19T02:39:32.323Z,99880.91
2022-08-19T02:42:00.567Z,99882.53
2022-08-19T02:44:31.825Z,99898.06
2022-08-19T02:47:00.384Z,99911.13
2022-08-19T02:49:28.678Z,99928.69
2022-08-19T02:51:56.901Z,99939.09
2022-08-19T02:54:25.032Z,99928.09
2022-08-19T02:56:53.215Z,99915.19
2022-08-19T02:59:23.044Z,99905.59
2022-08-19T03:01:51.433Z,99910.09
2022-08-19T03:04:20.405Z,99906.03
2022-08-19T03:06:49.275Z,99911.75
2022-08-19T03:09:19.628Z,99916.25
2022-08-19T03:11:48.562Z,99922.81
2022-08-19T03:14:19.040Z,99928.50
2022-08-19T03:16:50.926Z,99926.69
2022-08-19T03:19:22.410Z,99944.66
2022-08-19T03:21:51.373Z,99947.94
2022-08-19T03:24:20.263Z,99953.44
2022-08-19T03:26:52.314Z,99953.03
2022-08-19T03:29:30.272Z,99961.84
2022-08-19T03:32:06.591Z,99967.75
2022-08-19T03:34:37.186Z,99979.34
2022-08-19T03:37:10.911Z,99987.69
2022-08-19T03:39:41.336Z,99992.19
2022-08-19T03:42:47.787Z,99989.31
2022-08-19T03:44:59.729Z,99992.19
2022-08-19T03:47:27.944Z,99985.84
2022-08-19T03:49:56.497Z,99984.22
2022-08-19T03:52:24.721Z,99982.78
2022-08-19T03:54:52.974Z,99984.22
2022-08-19T03:57:21.588Z,99989.94
2022-08-19T03:59:56.045Z,100005.28
2022-08-19T04:02:41.722Z,100009.19
2022-08-19T04:05:10.132Z,100024.50
2022-08-19T04:07:38.378Z,100031.66
2022-08-19T04:10:06.951Z,100025.53
2022-08-19T04:12:40.400Z,100030.47
2022-08-19T04:15:09.875Z,100043.13
2022-08-19T04:17:38.006Z,100038.66
2022-08-19T04:20:07.060Z,100053.34
2022-08-19T04:22:35.576Z,100068.88
2022-08-19T04:25:04.170Z,100087.47
2022-08-19T04:27:32.767Z,100104.22
2022-08-19T04:30:00.997Z,100112.78
2022-08-19T04:32:32.943Z,100120.59
2022-08-19T04:35:17.609Z,100121.81
2022-08-19T04:37:47.547Z,100123.66
2022-08-19T04:40:37.215Z,100130.41
2022-08-19T04:43:05.468Z,100136.53
2022-08-19T04:45:39.456Z,100138.38
2022-08-19T04:48:26.533Z,100135.94
2022-08-19T04:51:00.637Z,100132.03
2022-08-19T04:53:37.433Z,100130.38
2022-08-19T04:56:12.416Z,100121.59
2022-08-19T04:58:43.499Z,100113.63
2022-08-19T05:01:15.755Z,100100.16
2022-08-19T05:03:44.034Z,100087.69
2022-08-19T05:06:15.903Z,100090.78
2022-08-19T05:08:45.199Z,100094.66
2022-08-19T05:11:26.409Z,100091.38
2022-08-19T05:13:58.796Z,100090.34
2022-08-19T05:16:28.464Z,100071.97
2022-08-19T05:19:15.699Z,100066.03
2022-08-19T05:22:03.340Z,100046.59
2022-08-19T05:24:34.316Z,100045.00
2022-08-19T05:27:06.567Z,100030.69
2022-08-19T05:29:36.381Z,100033.13
2022-08-19T05:32:09.679Z,100032.50
2022-08-19T05:34:39.136Z,100034.97
2022-08-19T05:37:08.582Z,100051.94
2022-08-19T05:39:39.247Z,100046.81
2022-08-19T05:42:10.081Z,100046.03
2022-08-19T05:44:44.973Z,100055.41
2022-08-19T05:47:14.452Z,100051.75
2022-08-19T05:49:43.658Z,100058.91
2022-08-19T05:52:18.902Z,100045.38
2022-08-19T05:54:51.225Z,100039.66
2022-08-19T05:57:20.686Z,100039.44
2022-08-19T05:59:53.111Z,100031.06
2022-08-19T06:02:28.652Z,100027.38
2022-08-19T06:04:56.927Z,100026.38
2022-08-19T06:07:25.215Z,100017.78
2022-08-19T06:10:00.307Z,100016.75
2022-08-19T06:12:32.724Z,100019.00
2022-08-19T06:15:11.585Z,100013.50
2022-08-19T06:17:40.310Z,100010.84
2022-08-19T06:20:12.959Z,100004.09
2022-08-19T06:22:42.908Z,100001.88
2022-08-19T06:25:12.337Z,99997.34
2022-08-19T06:27:53.363Z,99982.00
2022-08-19T06:30:29.576Z,99978.16
2022-08-19T06:32:57.840Z,99978.56
2022-08-19T06:35:26.403Z,99990.41
2022-08-19T06:37:55.469Z,100003.50
2022-08-19T06:40:23.943Z,100012.72
2022-08-19T06:42:54.723Z,100024.97
2022-08-19T06:45:35.346Z,100027.41
2022-08-19T06:48:04.579Z,100040.50
2022-08-19T06:50:32.760Z,100034.97
2022-08-19T06:53:04.641Z,100039.66
2022-08-19T06:55:33.354Z,100044.59
2022-08-19T06:58:05.580Z,100045.19
2022-08-19T07:00:34.827Z,100059.69
2022-08-19T07:03:07.730Z,100060.75
2022-08-19T07:05:45.452Z,100067.28
2022-08-19T07:08:14.904Z,100075.88
2022-08-19T07:10:47.481Z,100072.78
2022-08-19T07:13:15.811Z,100077.47
2022-08-19T07:15:43.980Z,100088.09
2022-08-19T07:18:13.275Z,100097.50
2022-08-19T07:20:44.624Z,100102.81
2022-08-19T07:23:16.281Z,100103.25
2022-08-19T07:25:53.186Z,100095.28
2022-08-19T07:28:24.745Z,100093.44
2022-08-19T07:30:53.931Z,100100.19
2022-08-19T07:33:23.695Z,100111.19
2022-08-19T07:35:51.828Z,100118.94
2022-08-19T07:38:19.987Z,100123.03
2022-08-19T07:40:48.143Z,100113.44
2022-08-19T07:43:17.706Z,100109.13
2022-08-19T07:45:46.436Z,100118.94
2022-08-19T07:48:15.443Z,100118.75
2022-08-19T07:50:43.864Z,100124.91
2022-08-19T07:53:13.237Z,100122.03
2022-08-19T07:55:43.803Z,100124.91
2022-08-19T07:58:16.259Z,100122.22
2022-08-19T08:00:47.699Z,100129.59
2022-08-19T08:03:18.998Z,100132.66
2022-08-19T08:06:05.950Z,100126.94
2022-08-19T08:08:52.756Z,100127.34
2022-08-19T08:11:24.150Z,100125.09
2022-08-19T08:14:00.932Z,100118.78
2022-08-19T08:16:32.211Z,100114.91
2022-08-19T08:19:01.353Z,100110.19
2022-08-19T08:21:29.693Z,100105.88
2022-08-19T08:26:31.043Z,100097.91
2022-08-19T08:29:03.349Z,100093.00
2022-08-19T08:31:43.430Z,100084.00
2022-08-19T08:34:13.897Z,100089.94
2022-08-19T08:36:46.847Z,100092.59
2022-08-19T08:39:17.741Z,100098.91
2022-08-19T08:42:09.764Z,100101.56
2022-08-19T08:44:51.170Z,100108.72
2022-08-19T08:47:23.831Z,100105.03
2022-08-19T08:50:04.499Z,100108.72
2022-08-19T08:52:43.850Z,100129.34
2022-08-19T08:55:20.468Z,100153.69
2022-08-19T08:57:56.062Z,100173.09
2022-08-19T09:00:34.532Z,100176.97
2022-08-19T09:03:04.518Z,100190.44
2022-08-19T09:06:17.445Z,100178.56
2022-08-19T09:09:12.182Z,100187.13
2022-08-19T09:11:59.333Z,100181.97
2022-08-19T09:14:52.183Z,100186.72
2022-08-19T09:17:31.727Z,100184.69
2022-08-19T09:20:09.039Z,100180.94
2022-08-19T09:22:44.957Z,100168.53
2022-08-19T09:25:16.607Z,100158.50
2022-08-19T09:27:45.366Z,100158.50
2022-08-19T09:30:18.548Z,100149.53
2022-08-19T09:32:47.487Z,100146.66
2022-08-19T09:35:26.472Z,100137.47
2022-08-19T09:37:59.497Z,100133.38
2022-08-19T09:40:37.739Z,100131.09
2022-08-19T09:43:09.852Z,100122.75
2022-08-19T09:45:39.676Z,100123.19
2022-08-19T09:48:09.524Z,100113.59
2022-08-19T09:50:52.045Z,100108.91
2022-08-19T09:53:23.416Z,100105.88
2022-08-19T09:55:56.084Z,100094.63
2022-08-19T09:58:28.818Z,100094.03
2022-08-19T10:00:58.269Z,100078.69
2022-08-19T10:03:30.092Z,100074.63
2022-08-19T10:06:00.827Z,100065.41
2022-08-19T10:08:35.984Z,100057.03
2022-08-19T10:11:28.047Z,100048.47
2022-08-19T10:13:53.722Z,100055.81
2022-08-19T10:16:30.028Z,100057.84
2022-08-19T10:18:59.302Z,100061.34
2022-08-19T10:21:32.032Z,100056.63
2022-08-19T10:24:04.982Z,100048.88
2022-08-19T10:26:42.611Z,100054.41
2022-08-19T10:29:10.815Z,100062.78
2022-08-19T10:31:59.903Z,100059.69
2022-08-19T10:34:28.626Z,100069.72
2022-08-19T10:37:00.747Z,100065.59
2022-08-19T10:39:43.485Z,100062.53
2022-08-19T10:42:13.941Z,100057.81
2022-08-19T10:44:42.808Z,100054.31
2022-08-19T10:47:24.630Z,100050.81
2022-08-19T10:50:13.329Z,100037.28
2022-08-19T10:52:49.313Z,100029.50
2022-08-19T10:55:43.271Z,100028.63
2022-08-19T10:58:13.387Z,100024.66
2022-08-19T11:00:43.627Z,100025.34
2022-08-19T11:03:12.547Z,100034.41
2022-08-19T11:05:40.990Z,100025.44
2022-08-19T11:08:23.222Z,100027.34
2022-08-19T11:10:57.776Z,100028.78
2022-08-19T11:13:29.577Z,100024.06
2022-08-19T11:16:07.310Z,100031.88
2022-08-19T11:18:41.351Z,100020.88
2022-08-19T11:21:18.197Z,100022.22
2022-08-19T11:23:48.100Z,100020.50
2022-08-19T11:26:18.447Z,100013.06
2022-08-19T11:28:46.767Z,100003.38
2022-08-19T11:31:21.406Z,100008.78
2022-08-19T11:33:53.499Z,100017.03
2022-08-19T11:36:23.512Z,100018.66
2022-08-19T11:38:52.308Z,100022.47
2022-08-19T11:41:26.643Z,100029.19
2022-08-19T11:43:56.159Z,100024.44
2022-08-19T11:46:26.970Z,100024.34
2022-08-19T11:48:55.385Z,100025.16
2022-08-19T11:51:25.718Z,100016.97
2022-08-19T11:53:55.415Z,100017.19
2022-08-19T11:56:25.101Z,100020.56
2022-08-19T11:58:54.429Z,100018.75
2022-08-19T12:01:24.596Z,100022.03
2022-08-19T12:03:56.359Z,100013.97
2022-08-19T12:06:29.429Z,100011.06
2022-08-19T12:08:58.299Z,100017.22
2022-08-19T12:11:26.943Z,100015.47
2022-08-19T12:13:56.045Z,100016.03
2022-08-19T12:16:30.447Z,100012.75
2022-08-19T12:19:00.012Z,100008.66
2022-08-19T12:21:29.546Z,100015.03
2022-08-19T12:23:59.737Z,100009.22
2022-08-19T12:26:30.516Z,100005.03
2022-08-19T12:29:00.537Z,99996.38
2022-08-19T12:31:30.057Z,99998.88
2022-08-19T12:33:58.978Z,99994.81
2022-08-19T12:36:27.180Z,99999.63
2022-08-19T12:38:55.346Z,99997.94
2022-08-19T12:41:23.755Z,100009.09
2022-08-19T12:43:52.164Z,100004.63
2022-08-19T12:46:23.022Z,100000.22
2022-08-19T12:48:56.209Z,99999.94
2022-08-19T12:51:24.556Z,100002.44
2022-08-19T12:53:52.684Z,100002.06
2022-08-19T12:56:23.157Z,100006.34
2022-08-19T12:58:52.809Z,100001.44
2022-08-19T13:01:22.871Z,100005.16
2022-08-19T13:03:53.535Z,100010.09
2022-08-19T13:06:24.926Z,100000.34
2022-08-19T13:08:57.715Z,99993.03
2022-08-19T13:11:27.653Z,99989.38
2022-08-19T13:13:56.260Z,99988.25
2022-08-19T13:16:24.709Z,99983.16
2022-08-19T13:18:53.154Z,99975.63
2022-08-19T13:21:24.744Z,99977.81
2022-08-19T13:23:54.148Z,99987.00
2022-08-19T13:26:22.412Z,99980.44
2022-08-19T13:29:09.276Z,99981.56
2022-08-19T13:31:59.030Z,99971.00
2022-08-19T13:34:31.696Z,99979.81
2022-08-19T13:37:01.162Z,99966.84
2022-08-19T13:39:29.712Z,99977.75
2022-08-19T13:41:58.555Z,99976.66
2022-08-19T13:44:27.419Z,99981.28
2022-08-19T13:46:56.024Z,99991.53
2022-08-19T13:49:24.244Z,99986.31
2022-08-19T13:51:52.517Z,99987.81
2022-08-19T13:54:20.633Z,99995.78
2022-08-19T13:56:48.753Z,99995.50
2022-08-19T13:59:18.066Z,99989.47
2022-08-19T14:01:46.401Z,99980.00
2022-08-19T14:04:14.651Z,99979.63
2022-08-19T14:06:42.891Z,99974.69
2022-08-19T14:09:11.132Z,99975.81
2022-08-19T14:11:39.277Z,99982.53
2022-08-19T14:14:07.480Z,99966.19
2022-08-19T14:16:35.618Z,99965.53
2022-08-19T14:19:04.211Z,99968.28
2022-08-19T14:21:32.353Z,99968.81
2022-08-19T14:24:03.748Z,99959.19
2022-08-19T14:26:31.922Z,99961.63
2022-08-19T14:29:02.380Z,99959.94
2022-08-19T14:31:31.046Z,99955.19
2022-08-19T14:33:59.548Z,99954.53
2022-08-19T14:36:27.771Z,99950.53
2022-08-19T14:38:55.994Z,99954.88
2022-08-19T14:41:25.214Z,99955.53
2022-08-19T14:43:54.742Z,99947.06
2022-08-19T14:46:26.351Z,99959.72
2022-08-19T14:48:57.346Z,99948.41
2022-08-19T14:51:28.739Z,99957.19
2022-08-19T14:53:57.178Z,99961.22
2022-08-19T14:56:29.165Z,99964.28
2022-08-19T14:59:01.330Z,99970.50
2022-08-19T15:01:30.011Z,99966.75
2022-08-19T15:03:58.205Z,99965.47
2022-08-19T15:06:27.417Z,99962.19
2022-08-19T15:08:57.766Z,99954.13
2022-08-19T15:11:30.131Z,99960.66
2022-08-19T15:13:58.426Z,99959.50
2022-08-19T15:16:28.788Z,99957.84
2022-08-19T15:18:59.945Z,99963.44
2022-08-19T15:21:29.110Z,99962.19
2022-08-19T15:23:59.433Z,99960.16
2022-08-19T15:26:33.370Z,99951.06
2022-08-19T15:29:03.089Z,99964.41
2022-08-19T15:31:36.459Z,99962.44
2022-08-19T15:34:06.856Z,99964.97
2022-08-19T15:36:38.344Z,99967.25
2022-08-19T15:39:07.391Z,99963.53
2022-08-19T15:41:37.069Z,99971.91
2022-08-19T15:44:10.019Z,99967.66
2022-08-19T15:46:43.470Z,99976.84
2022-08-19T15:49:13.976Z,99985.53
2022-08-19T15:51:44.031Z,99982.03
2022-08-19T15:54:16.285Z,99996.38
2022-08-19T15:57:03.162Z,99992.81
2022-08-19T15:59:50.217Z,99989.22
2022-08-19T16:02:41.369Z,99994.59
2022-08-19T16:05:31.021Z,99997.84
2022-08-19T16:07:59.436Z,99996.53
2022-08-19T16:10:28.526Z,99995.34
2022-08-19T16:12:58.405Z,99996.53
2022-08-19T16:15:28.622Z,99996.47
2022-08-19T16:17:58.068Z,99996.53
2022-08-19T16:20:27.499Z,100001.13
2022-08-19T16:22:58.517Z,100005.53
2022-08-19T16:25:30.002Z,99999.22
2022-08-19T16:28:07.258Z,99996.72
2022-08-19T16:30:41.416Z,100002.78
2022-08-19T16:33:10.727Z,100003.13
2022-08-19T16:35:39.125Z,100003.13
2022-08-19T16:38:07.429Z,99998.00
2022-08-19T16:40:35.697Z,99999.88
2022-08-19T16:43:04.459Z,99996.38
2022-08-19T16:45:32.727Z,99984.91
2022-08-19T16:48:01.582Z,99993.28
2022-08-19T16:50:48.157Z,99993.50
2022-08-19T16:53:19.347Z,99991.56
2022-08-19T16:55:50.891Z,100000.78
2022-08-19T16:58:19.128Z,99994.66
2022-08-19T17:00:49.845Z,99995.69
2022-08-19T17:03:19.715Z,99998.59
2022-08-19T17:06:02.541Z,99995.34
2022-08-19T17:08:34.082Z,99988.50
2022-08-19T17:11:17.739Z,99993.84
2022-08-19T17:13:48.080Z,99999.09
2022-08-19T17:16:19.811Z,100003.09
2022-08-19T17:18:52.242Z,100003.25
2022-08-19T17:21:27.830Z,100009.88
2022-08-19T17:23:57.474Z,100011.88
2022-08-19T17:26:26.615Z,100006.09
2022-08-19T17:28:57.325Z,100013.13
2022-08-19T17:31:29.081Z,100029.31
2022-08-19T17:33:58.880Z,100033.81
2022-08-19T17:36:30.164Z,100024.88
2022-08-19T17:39:01.226Z,100036.25
2022-08-19T17:41:31.627Z,100032.31
2022-08-19T17:44:01.196Z,100037.28
2022-08-19T17:46:30.455Z,100040.50
2022-08-19T17:48:58.923Z,100049.78
2022-08-19T17:51:45.464Z,100051.31
2022-08-19T17:54:18.729Z,100063.72
2022-08-19T17:56:47.120Z,100068.63
2022-08-19T17:59:18.453Z,100075.28
2022-08-19T18:01:52.301Z,100076.19
2022-08-19T18:04:26.068Z,100077.59
2022-08-19T18:06:55.895Z,100090.50
2022-08-19T18:09:26.795Z,100101.94
2022-08-19T18:11:57.907Z,100101.25
2022-08-19T18:14:33.695Z,100101.53
2022-08-19T18:17:06.326Z,100104.91
2022-08-19T18:19:41.166Z,100110.75
2022-08-19T18:22:12.185Z,100105.03
2022-08-19T18:24:45.841Z,100110.03
2022-08-19T18:27:16.934Z,100114.38
2022-08-19T18:29:45.928Z,100116.38
2022-08-19T18:32:23.592Z,100123.81
2022-08-19T18:34:56.209Z,100122.81
2022-08-19T18:37:26.235Z,100126.72
2022-08-19T18:40:13.460Z,100128.56
2022-08-19T18:43:04.571Z,100143.56
2022-08-19T18:45:51.329Z,100148.34
2022-08-19T18:48:38.556Z,100150.03
2022-08-19T18:51:07.390Z,100155.16
2022-08-19T18:53:39.093Z,100151.28
2022-08-19T18:56:10.012Z,100165.47
2022-08-19T18:58:39.544Z,100158.50
2022-08-19T19:01:14.193Z,100161.38
2022-08-19T19:03:45.744Z,100168.78
2022-08-19T19:06:20.503Z,100163.66
2022-08-19T19:08:50.207Z,100164.91
2022-08-19T19:11:23.235Z,100169.63
2022-08-19T19:13:51.919Z,100166.78
2022-08-19T19:16:24.482Z,100162.09
2022-08-19T19:18:53.291Z,100165.16
2022-08-19T19:21:24.435Z,100172.13
2022-08-19T19:23:54.817Z,100172.53
2022-08-19T19:26:23.049Z,100177.47
2022-08-19T19:28:51.600Z,100176.03
2022-08-19T19:31:26.562Z,100173.38
2022-08-19T19:33:56.230Z,100176.88
2022-08-19T19:36:24.495Z,100173.19
2022-08-19T19:38:53.064Z,100173.19
2022-08-19T19:41:26.612Z,100178.69
2022-08-19T19:44:31.001Z,100179.13
2022-08-19T19:46:47.052Z,100179.72
2022-08-19T19:49:15.922Z,100193.25
2022-08-19T19:51:44.347Z,100189.38
2022-08-19T19:54:18.657Z,100192.63
2022-08-19T19:56:50.405Z,100195.69
2022-08-19T19:59:18.719Z,100203.47
2022-08-19T20:01:47.277Z,100208.41
2022-08-19T20:04:16.613Z,100207.34
2022-08-19T20:06:46.246Z,100210.63
2022-08-19T20:09:19.640Z,100206.13
2022-08-19T20:11:53.420Z,100195.91
2022-08-19T20:14:23.532Z,100208.56
2022-08-19T20:16:52.874Z,100204.69
2022-08-19T20:19:26.041Z,100203.66
2022-08-19T20:21:55.829Z,100211.66
2022-08-19T20:24:28.016Z,100202.88
2022-08-19T20:26:56.207Z,100206.97
2022-08-19T20:29:39.610Z,100218.41
2022-08-19T20:32:10.001Z,100218.63
2022-08-19T20:34:39.330Z,100223.94
2022-08-19T20:37:10.289Z,100217.19
2022-08-19T20:39:38.730Z,100215.53
2022-08-19T20:42:07.121Z,100208.78
2022-08-19T20:44:36.082Z,100210.44
2022-08-19T20:47:04.414Z,100206.34
2022-08-19T20:49:32.843Z,100199.38
2022-08-19T20:52:01.622Z,100208.38
2022-08-19T20:54:30.802Z,100207.38
2022-08-19T20:56:59.131Z,100207.53
2022-08-19T20:59:27.354Z,100212.00
2022-08-19T21:01:55.646Z,100218.94
2022-08-19T21:04:24.247Z,100221.41
2022-08-19T21:06:52.426Z,100225.91
2022-08-19T21:09:39.484Z,100220.84
2022-08-19T21:12:09.308Z,100214.06
2022-08-19T21:14:43.103Z,100214.28
2022-08-19T21:17:12.032Z,100206.13
2022-08-19T21:19:40.340Z,100220.03
2022-08-19T21:22:09.181Z,100216.91
2022-08-19T21:24:38.385Z,100217.72
2022-08-19T21:27:06.800Z,100213.84
2022-08-19T21:29:37.433Z,100218.16
2022-08-19T21:32:05.793Z,100207.28
2022-08-19T21:34:34.304Z,100213.63
2022-08-19T21:37:02.479Z,100209.09
2022-08-19T21:39:30.703Z,100218.47
2022-08-19T21:41:58.930Z,100224.41
2022-08-19T21:44:27.199Z,100223.56
2022-08-19T21:46:55.574Z,100220.66
2022-08-19T21:49:24.060Z,100214.28
2022-08-19T21:51:52.681Z,100213.28
2022-08-19T21:54:20.907Z,100214.69
2022-08-19T21:56:49.216Z,100214.50
2022-08-19T21:59:17.722Z,100227.78
2022-08-19T22:01:50.458Z,100224.31
2022-08-19T22:04:22.374Z,100220.81
2022-08-19T22:06:50.623Z,100227.53
2022-08-19T22:09:18.833Z,100229.59
2022-08-19T22:11:47.048Z,100234.69
2022-08-19T22:14:15.428Z,100236.53
2022-08-19T22:16:43.690Z,100235.34
2022-08-19T22:19:12.890Z,100239.84
2022-08-19T22:21:41.383Z,100236.94
2022-08-19T22:24:12.014Z,100240.78
2022-08-19T22:26:40.194Z,100231.16
2022-08-19T22:29:08.418Z,100232.38
2022-08-19T22:31:37.688Z,100228.28
2022-08-19T22:34:06.695Z,100232.31
2022-08-19T22:36:35.464Z,100235.81
2022-08-19T22:39:05.097Z,100235.34
2022-08-19T22:41:34.143Z,100234.31
2022-08-19T22:44:03.850Z,100242.84
2022-08-19T22:46:33.715Z,100237.53
2022-08-19T22:49:01.944Z,100235.06
2022-08-19T22:51:50.170Z,100232.22
2022-08-19T22:54:18.662Z,100235.69
2022-08-19T22:56:46.910Z,100240.03
2022-08-19T22:59:15.110Z,100242.50
2022-08-19T23:01:46.380Z,100241.88
2022-08-19T23:04:17.403Z,100235.91
2022-08-19T23:06:45.576Z,100237.63
2022-08-19T23:09:16.858Z,100226.00
2022-08-19T23:11:46.251Z,100228.38
2022-08-19T23:14:16.785Z,100231.00
2022-08-19T23:16:50.839Z,100229.13
2022-08-19T23:19:20.497Z,100231.34
2022-08-19T23:21:48.944Z,100233.22
2022-08-19T23:24:17.370Z,100228.53
2022-08-19T23:27:05.491Z,100226.44
2022-08-19T23:29:52.091Z,100227.66
2022-08-19T23:32:22.307Z,100219.06
2022-08-19T23:34:50.506Z,100219.91
2022-08-19T23:37:18.929Z,100218.63
2022-08-19T23:39:47.164Z,100219.47
2022-08-19T23:42:15.343Z,100221.28
2022-08-19T23:44:51.432Z,100222.56
2022-08-19T23:47:21.473Z,100217.41
2022-08-19T23:49:50.694Z,100218.38
2022-08-19T23:52:19.354Z,100222.41
2022-08-19T23:54:47.621Z,100223.84
2022-08-19T23:57:15.856Z,100225.50
2022-08-19T23:59:47.403Z,100216.47
